sensor_id;sensor_type;location;lat;lon;timestamp;P1;durP1;ratioP1;P2;durP2;ratioP2
15412;SDS011;7805;49.554;7.632;2022-09-21T00:00:23;7.97;;;3.83;;
15412;SDS011;7805;49.554;7.632;2022-09-21T00:02:50;7.53;;;6.70;;
15412;SDS011;7805;49.554;7.632;2022-09-21T00:05:16;6.37;;;4.97;;
15412;SDS011;7805;49.554;7.632;2022-09-21T00:07:42;4.73;;;3.43;;
15412;SDS011;7805;49.554;7.632;2022-09-21T00:10:08;3.40;;;2.60;;
15412;SDS011;7805;49.554;7.632;2022-09-21T00:12:34;3.90;;;2.47;;
15412;SDS011;7805;49.554;7.632;2022-09-21T00:15:03;7.77;;;4.23;;
15412;SDS011;7805;49.554;7.632;2022-09-21T00:17:33;6.73;;;3.53;;
15412;SDS011;7805;49.554;7.632;2022-09-21T00:20:00;8.50;;;4.33;;
15412;SDS011;7805;49.554;7.632;2022-09-21T00:22:28;7.73;;;3.77;;
15412;SDS011;7805;49.554;7.632;2022-09-21T00:24:53;7.03;;;3.07;;
15412;SDS011;7805;49.554;7.632;2022-09-21T00:27:20;4.33;;;2.60;;
15412;SDS011;7805;49.554;7.632;2022-09-21T00:29:46;2.80;;;2.23;;
15412;SDS011;7805;49.554;7.632;2022-09-21T00:32:12;6.73;;;2.60;;
15412;SDS011;7805;49.554;7.632;2022-09-21T00:34:39;6.50;;;4.03;;
15412;SDS011;7805;49.554;7.632;2022-09-21T00:37:05;4.00;;;3.50;;
15412;SDS011;7805;49.554;7.632;2022-09-21T00:39:33;6.63;;;2.87;;
15412;SDS011;7805;49.554;7.632;2022-09-21T00:41:59;5.27;;;3.07;;
15412;SDS011;7805;49.554;7.632;2022-09-21T00:44:31;4.20;;;2.37;;
15412;SDS011;7805;49.554;7.632;2022-09-21T00:47:02;3.83;;;2.23;;
15412;SDS011;7805;49.554;7.632;2022-09-21T00:49:33;5.57;;;3.13;;
15412;SDS011;7805;49.554;7.632;2022-09-21T00:52:00;5.63;;;2.90;;
15412;SDS011;7805;49.554;7.632;2022-09-21T00:54:30;4.00;;;3.53;;
15412;SDS011;7805;49.554;7.632;2022-09-21T00:57:01;5.87;;;4.73;;
15412;SDS011;7805;49.554;7.632;2022-09-21T00:59:28;36.33;;;25.47;;
15412;SDS011;7805;49.554;7.632;2022-09-21T01:01:56;18.03;;;11.67;;
15412;SDS011;7805;49.554;7.632;2022-09-21T01:04:23;8.70;;;6.17;;
15412;SDS011;7805;49.554;7.632;2022-09-21T01:06:50;11.93;;;8.63;;
15412;SDS011;7805;49.554;7.632;2022-09-21T01:09:16;13.37;;;6.73;;
15412;SDS011;7805;49.554;7.632;2022-09-21T01:11:56;6.80;;;3.80;;
15412;SDS011;7805;49.554;7.632;2022-09-21T01:17:33;7.17;;;4.83;;
15412;SDS011;7805;49.554;7.632;2022-09-21T01:30:53;13.73;;;5.70;;
15412;SDS011;7805;49.554;7.632;2022-09-21T01:33:24;17.47;;;6.90;;
15412;SDS011;7805;49.554;7.632;2022-09-21T01:35:55;19.60;;;7.73;;
15412;SDS011;7805;49.554;7.632;2022-09-21T01:38:26;21.20;;;7.37;;
15412;SDS011;7805;49.554;7.632;2022-09-21T01:40:57;17.00;;;6.20;;
15412;SDS011;7805;49.554;7.632;2022-09-21T01:43:30;17.50;;;6.40;;
15412;SDS011;7805;49.554;7.632;2022-09-21T01:45:59;15.03;;;6.27;;
15412;SDS011;7805;49.554;7.632;2022-09-21T01:48:29;14.40;;;6.13;;
15412;SDS011;7805;49.554;7.632;2022-09-21T01:50:59;16.83;;;5.77;;
15412;SDS011;7805;49.554;7.632;2022-09-21T01:53:32;21.13;;;6.40;;
15412;SDS011;7805;49.554;7.632;2022-09-21T01:57:18;17.10;;;6.07;;
15412;SDS011;7805;49.554;7.632;2022-09-21T01:59:34;15.30;;;6.20;;
15412;SDS011;7805;49.554;7.632;2022-09-21T02:02:35;20.77;;;6.70;;
15412;SDS011;7805;49.554;7.632;2022-09-21T02:05:10;19.03;;;7.27;;
15412;SDS011;7805;49.554;7.632;2022-09-21T02:07:37;17.77;;;7.20;;
15412;SDS011;7805;49.554;7.632;2022-09-21T02:10:04;21.73;;;7.23;;
15412;SDS011;7805;49.554;7.632;2022-09-21T02:12:32;11.43;;;6.73;;
15412;SDS011;7805;49.554;7.632;2022-09-21T02:14:58;19.27;;;10.20;;
15412;SDS011;7805;49.554;7.632;2022-09-21T02:17:35;13.63;;;6.80;;
15412;SDS011;7805;49.554;7.632;2022-09-21T02:25:15;59.27;;;6.43;;
15412;SDS011;7805;49.554;7.632;2022-09-21T02:27:51;17.97;;;6.13;;
15412;SDS011;7805;49.554;7.632;2022-09-21T02:30:26;14.30;;;6.23;;
15412;SDS011;7805;49.554;7.632;2022-09-21T02:35:58;11.47;;;5.87;;
15412;SDS011;7805;49.554;7.632;2022-09-21T02:38:46;11.03;;;6.10;;
15412;SDS011;7805;49.554;7.632;2022-09-21T02:46:54;11.33;;;7.87;;
15412;SDS011;7805;49.554;7.632;2022-09-21T02:49:27;13.30;;;7.87;;
15412;SDS011;7805;49.554;7.632;2022-09-21T02:51:58;17.33;;;7.20;;
15412;SDS011;7805;49.554;7.632;2022-09-21T02:54:29;12.23;;;6.57;;
15412;SDS011;7805;49.554;7.632;2022-09-21T02:56:57;11.07;;;7.07;;
15412;SDS011;7805;49.554;7.632;2022-09-21T02:59:24;13.53;;;7.83;;
15412;SDS011;7805;49.554;7.632;2022-09-21T03:01:51;107.50;;;9.80;;
15412;SDS011;7805;49.554;7.632;2022-09-21T03:04:18;23.57;;;6.53;;
15412;SDS011;7805;49.554;7.632;2022-09-21T03:06:43;24.97;;;6.47;;
15412;SDS011;7805;49.554;7.632;2022-09-21T03:09:09;88.53;;;9.70;;
15412;SDS011;7805;49.554;7.632;2022-09-21T03:11:35;13.80;;;6.80;;
15412;SDS011;7805;49.554;7.632;2022-09-21T03:14:00;104.40;;;9.17;;
15412;SDS011;7805;49.554;7.632;2022-09-21T03:16:29;92.63;;;10.13;;
15412;SDS011;7805;49.554;7.632;2022-09-21T03:18:55;46.40;;;8.70;;
15412;SDS011;7805;49.554;7.632;2022-09-21T03:21:20;139.87;;;10.70;;
15412;SDS011;7805;49.554;7.632;2022-09-21T03:23:46;9.90;;;6.50;;
15412;SDS011;7805;49.554;7.632;2022-09-21T03:26:12;101.77;;;9.00;;
15412;SDS011;7805;49.554;7.632;2022-09-21T03:28:37;7.90;;;6.47;;
15412;SDS011;7805;49.554;7.632;2022-09-21T03:31:03;23.77;;;6.87;;
15412;SDS011;7805;49.554;7.632;2022-09-21T03:33:30;56.53;;;7.17;;
15412;SDS011;7805;49.554;7.632;2022-09-21T03:35:56;7.37;;;5.37;;
15412;SDS011;7805;49.554;7.632;2022-09-21T03:38:21;6.50;;;5.83;;
15412;SDS011;7805;49.554;7.632;2022-09-21T03:40:47;8.50;;;4.87;;
15412;SDS011;7805;49.554;7.632;2022-09-21T03:43:13;6.77;;;4.57;;
15412;SDS011;7805;49.554;7.632;2022-09-21T03:45:39;5.80;;;4.10;;
15412;SDS011;7805;49.554;7.632;2022-09-21T03:48:07;8.63;;;5.30;;
15412;SDS011;7805;49.554;7.632;2022-09-21T03:50:34;5.87;;;5.27;;
15412;SDS011;7805;49.554;7.632;2022-09-21T03:52:59;29.23;;;6.47;;
15412;SDS011;7805;49.554;7.632;2022-09-21T03:55:25;10.87;;;5.10;;
15412;SDS011;7805;49.554;7.632;2022-09-21T03:57:51;7.20;;;5.03;;
15412;SDS011;7805;49.554;7.632;2022-09-21T04:00:17;7.03;;;5.33;;
15412;SDS011;7805;49.554;7.632;2022-09-21T04:02:43;7.70;;;5.23;;
15412;SDS011;7805;49.554;7.632;2022-09-21T04:05:09;8.20;;;5.13;;
15412;SDS011;7805;49.554;7.632;2022-09-21T04:07:39;10.57;;;6.07;;
15412;SDS011;7805;49.554;7.632;2022-09-21T04:10:06;14.77;;;5.10;;
15412;SDS011;7805;49.554;7.632;2022-09-21T04:12:37;14.47;;;5.90;;
15412;SDS011;7805;49.554;7.632;2022-09-21T04:15:03;11.97;;;6.10;;
15412;SDS011;7805;49.554;7.632;2022-09-21T04:17:31;8.63;;;5.90;;
15412;SDS011;7805;49.554;7.632;2022-09-21T04:19:57;30.40;;;6.60;;
15412;SDS011;7805;49.554;7.632;2022-09-21T04:22:23;27.60;;;6.40;;
15412;SDS011;7805;49.554;7.632;2022-09-21T04:24:49;45.87;;;7.03;;
15412;SDS011;7805;49.554;7.632;2022-09-21T04:27:15;10.57;;;6.93;;
15412;SDS011;7805;49.554;7.632;2022-09-21T04:29:40;6.80;;;5.83;;
15412;SDS011;7805;49.554;7.632;2022-09-21T04:32:06;17.20;;;5.77;;
15412;SDS011;7805;49.554;7.632;2022-09-21T04:34:32;11.53;;;6.23;;
15412;SDS011;7805;49.554;7.632;2022-09-21T04:36:58;10.03;;;7.00;;
15412;SDS011;7805;49.554;7.632;2022-09-21T04:39:24;11.63;;;7.07;;
15412;SDS011;7805;49.554;7.632;2022-09-21T04:41:50;12.70;;;8.20;;
15412;SDS011;7805;49.554;7.632;2022-09-21T04:44:15;10.97;;;6.90;;
15412;SDS011;7805;49.554;7.632;2022-09-21T04:46:44;10.87;;;6.63;;
15412;SDS011;7805;49.554;7.632;2022-09-21T04:49:10;16.83;;;7.17;;
15412;SDS011;7805;49.554;7.632;2022-09-21T04:51:35;13.03;;;6.87;;
15412;SDS011;7805;49.554;7.632;2022-09-21T04:54:01;15.97;;;6.23;;
15412;SDS011;7805;49.554;7.632;2022-09-21T04:56:27;8.93;;;6.27;;
15412;SDS011;7805;49.554;7.632;2022-09-21T04:58:53;9.73;;;6.00;;
15412;SDS011;7805;49.554;7.632;2022-09-21T05:01:18;18.97;;;5.83;;
15412;SDS011;7805;49.554;7.632;2022-09-21T05:03:44;9.83;;;5.30;;
15412;SDS011;7805;49.554;7.632;2022-09-21T05:06:10;12.90;;;5.80;;
15412;SDS011;7805;49.554;7.632;2022-09-21T05:08:37;8.10;;;5.27;;
15412;SDS011;7805;49.554;7.632;2022-09-21T05:11:23;18.53;;;5.30;;
15412;SDS011;7805;49.554;7.632;2022-09-21T05:13:49;11.60;;;5.97;;
15412;SDS011;7805;49.554;7.632;2022-09-21T05:16:15;11.90;;;5.10;;
15412;SDS011;7805;49.554;7.632;2022-09-21T05:18:42;8.27;;;4.43;;
15412;SDS011;7805;49.554;7.632;2022-09-21T05:21:10;7.27;;;4.47;;
15412;SDS011;7805;49.554;7.632;2022-09-21T05:23:38;6.87;;;4.70;;
15412;SDS011;7805;49.554;7.632;2022-09-21T05:26:04;10.07;;;5.60;;
15412;SDS011;7805;49.554;7.632;2022-09-21T05:28:30;8.83;;;5.50;;
15412;SDS011;7805;49.554;7.632;2022-09-21T05:37:06;8.27;;;5.53;;
15412;SDS011;7805;49.554;7.632;2022-09-21T05:39:42;10.03;;;5.30;;
15412;SDS011;7805;49.554;7.632;2022-09-21T05:42:09;6.57;;;5.30;;
15412;SDS011;7805;49.554;7.632;2022-09-21T05:44:35;29.17;;;6.67;;
15412;SDS011;7805;49.554;7.632;2022-09-21T05:47:03;35.20;;;5.83;;
15412;SDS011;7805;49.554;7.632;2022-09-21T05:49:48;11.40;;;4.90;;
15412;SDS011;7805;49.554;7.632;2022-09-21T06:03:54;9.40;;;6.00;;
15412;SDS011;7805;49.554;7.632;2022-09-21T06:06:22;11.37;;;6.53;;
15412;SDS011;7805;49.554;7.632;2022-09-21T06:08:47;11.87;;;8.67;;
15412;SDS011;7805;49.554;7.632;2022-09-21T06:11:13;9.60;;;7.07;;
15412;SDS011;7805;49.554;7.632;2022-09-21T06:13:39;11.40;;;5.67;;
15412;SDS011;7805;49.554;7.632;2022-09-21T06:16:07;46.67;;;7.17;;
15412;SDS011;7805;49.554;7.632;2022-09-21T06:18:37;19.47;;;7.00;;
15412;SDS011;7805;49.554;7.632;2022-09-21T06:21:04;23.00;;;7.10;;
15412;SDS011;7805;49.554;7.632;2022-09-21T06:23:30;7.97;;;5.73;;
15412;SDS011;7805;49.554;7.632;2022-09-21T06:25:56;9.17;;;4.50;;
15412;SDS011;7805;49.554;7.632;2022-09-21T06:28:21;6.37;;;5.10;;
15412;SDS011;7805;49.554;7.632;2022-09-21T06:30:51;7.80;;;4.93;;
15412;SDS011;7805;49.554;7.632;2022-09-21T06:33:17;5.17;;;4.30;;
15412;SDS011;7805;49.554;7.632;2022-09-21T06:35:55;39.20;;;6.10;;
15412;SDS011;7805;49.554;7.632;2022-09-21T06:41:04;4.40;;;4.00;;
15412;SDS011;7805;49.554;7.632;2022-09-21T06:43:30;8.03;;;4.00;;
15412;SDS011;7805;49.554;7.632;2022-09-21T06:46:00;6.37;;;4.53;;
15412;SDS011;7805;49.554;7.632;2022-09-21T06:48:27;6.53;;;4.97;;
15412;SDS011;7805;49.554;7.632;2022-09-21T06:51:00;7.40;;;5.87;;
15412;SDS011;7805;49.554;7.632;2022-09-21T06:53:27;7.27;;;6.57;;
15412;SDS011;7805;49.554;7.632;2022-09-21T06:56:01;7.63;;;6.70;;
15412;SDS011;7805;49.554;7.632;2022-09-21T06:58:31;7.63;;;6.93;;
15412;SDS011;7805;49.554;7.632;2022-09-21T07:01:05;12.63;;;10.43;;
15412;SDS011;7805;49.554;7.632;2022-09-21T07:03:35;15.23;;;11.30;;
15412;SDS011;7805;49.554;7.632;2022-09-21T07:06:01;12.30;;;10.53;;
15412;SDS011;7805;49.554;7.632;2022-09-21T07:08:27;8.80;;;7.27;;
15412;SDS011;7805;49.554;7.632;2022-09-21T07:10:53;13.17;;;8.87;;
15412;SDS011;7805;49.554;7.632;2022-09-21T07:13:22;12.43;;;9.93;;
15412;SDS011;7805;49.554;7.632;2022-09-21T07:15:48;9.67;;;8.20;;
15412;SDS011;7805;49.554;7.632;2022-09-21T07:18:14;10.23;;;6.90;;
15412;SDS011;7805;49.554;7.632;2022-09-21T07:20:40;11.40;;;9.60;;
15412;SDS011;7805;49.554;7.632;2022-09-21T07:23:09;11.30;;;9.57;;
15412;SDS011;7805;49.554;7.632;2022-09-21T07:25:39;15.10;;;11.10;;
15412;SDS011;7805;49.554;7.632;2022-09-21T07:28:06;9.03;;;8.13;;
15412;SDS011;7805;49.554;7.632;2022-09-21T07:30:31;7.37;;;6.67;;
15412;SDS011;7805;49.554;7.632;2022-09-21T07:32:57;5.03;;;3.90;;
15412;SDS011;7805;49.554;7.632;2022-09-21T07:35:23;4.97;;;4.00;;
15412;SDS011;7805;49.554;7.632;2022-09-21T07:37:49;5.03;;;4.00;;
15412;SDS011;7805;49.554;7.632;2022-09-21T07:40:14;4.33;;;3.80;;
15412;SDS011;7805;49.554;7.632;2022-09-21T07:42:40;4.27;;;3.87;;
15412;SDS011;7805;49.554;7.632;2022-09-21T07:45:09;6.17;;;5.47;;
15412;SDS011;7805;49.554;7.632;2022-09-21T07:47:35;8.93;;;5.97;;
15412;SDS011;7805;49.554;7.632;2022-09-21T07:50:00;5.57;;;5.00;;
15412;SDS011;7805;49.554;7.632;2022-09-21T07:52:26;4.67;;;3.70;;
15412;SDS011;7805;49.554;7.632;2022-09-21T07:54:52;5.37;;;4.03;;
15412;SDS011;7805;49.554;7.632;2022-09-21T07:57:17;5.20;;;3.50;;
15412;SDS011;7805;49.554;7.632;2022-09-21T08:00:02;12.83;;;8.30;;
15412;SDS011;7805;49.554;7.632;2022-09-21T08:02:28;15.23;;;7.50;;
15412;SDS011;7805;49.554;7.632;2022-09-21T08:04:54;16.70;;;10.60;;
15412;SDS011;7805;49.554;7.632;2022-09-21T08:07:19;9.07;;;5.70;;
15412;SDS011;7805;49.554;7.632;2022-09-21T08:09:45;60.73;;;26.93;;
15412;SDS011;7805;49.554;7.632;2022-09-21T08:12:13;20.53;;;10.77;;
15412;SDS011;7805;49.554;7.632;2022-09-21T08:14:39;69.30;;;31.97;;
15412;SDS011;7805;49.554;7.632;2022-09-21T08:17:04;16.03;;;10.43;;
15412;SDS011;7805;49.554;7.632;2022-09-21T08:19:30;12.23;;;8.80;;
15412;SDS011;7805;49.554;7.632;2022-09-21T08:22:00;17.77;;;10.90;;
15412;SDS011;7805;49.554;7.632;2022-09-21T08:24:26;8.30;;;5.40;;
15412;SDS011;7805;49.554;7.632;2022-09-21T08:26:51;3.97;;;3.50;;
15412;SDS011;7805;49.554;7.632;2022-09-21T08:29:19;7.00;;;5.80;;
15412;SDS011;7805;49.554;7.632;2022-09-21T08:31:45;7.30;;;4.90;;
15412;SDS011;7805;49.554;7.632;2022-09-21T08:34:11;5.13;;;3.30;;
15412;SDS011;7805;49.554;7.632;2022-09-21T08:36:36;4.27;;;3.00;;
15412;SDS011;7805;49.554;7.632;2022-09-21T08:39:04;4.60;;;3.20;;
15412;SDS011;7805;49.554;7.632;2022-09-21T08:44:22;5.57;;;3.23;;
15412;SDS011;7805;49.554;7.632;2022-09-21T08:46:59;7.83;;;5.27;;
15412;SDS011;7805;49.554;7.632;2022-09-21T08:49:28;5.20;;;2.80;;
15412;SDS011;7805;49.554;7.632;2022-09-21T08:51:58;5.43;;;2.57;;
15412;SDS011;7805;49.554;7.632;2022-09-21T08:57:07;7.63;;;4.43;;
15412;SDS011;7805;49.554;7.632;2022-09-21T09:00:00;5.47;;;2.50;;
15412;SDS011;7805;49.554;7.632;2022-09-21T09:16:39;4.23;;;2.20;;
15412;SDS011;7805;49.554;7.632;2022-09-21T09:21:55;7.17;;;2.27;;
15412;SDS011;7805;49.554;7.632;2022-09-21T09:30:11;2.63;;;1.97;;
15412;SDS011;7805;49.554;7.632;2022-09-21T09:32:55;4.03;;;1.70;;
15412;SDS011;7805;49.554;7.632;2022-09-21T09:37:58;4.43;;;1.60;;
15412;SDS011;7805;49.554;7.632;2022-09-21T09:48:48;3.67;;;1.47;;
15412;SDS011;7805;49.554;7.632;2022-09-21T09:51:37;4.65;;;1.70;;
15412;SDS011;7805;49.554;7.632;2022-09-21T09:54:04;2.38;;;1.83;;
15412;SDS011;7805;49.554;7.632;2022-09-21T09:56:36;2.13;;;1.50;;
15412;SDS011;7805;49.554;7.632;2022-09-21T09:59:02;4.15;;;1.80;;
15412;SDS011;7805;49.554;7.632;2022-09-21T10:01:44;3.70;;;1.27;;
15412;SDS011;7805;49.554;7.632;2022-09-21T10:04:12;4.30;;;1.67;;
15412;SDS011;7805;49.554;7.632;2022-09-21T10:06:39;2.28;;;1.25;;
15412;SDS011;7805;49.554;7.632;2022-09-21T10:11:52;2.55;;;1.63;;
15412;SDS011;7805;49.554;7.632;2022-09-21T10:14:40;4.57;;;1.73;;
15412;SDS011;7805;49.554;7.632;2022-09-21T10:17:17;8.48;;;1.63;;
15412;SDS011;7805;49.554;7.632;2022-09-21T10:19:44;3.10;;;1.50;;
15412;SDS011;7805;49.554;7.632;2022-09-21T10:22:17;3.77;;;1.33;;
15412;SDS011;7805;49.554;7.632;2022-09-21T10:24:50;3.83;;;1.53;;
15412;SDS011;7805;49.554;7.632;2022-09-21T10:27:24;2.33;;;1.80;;
15412;SDS011;7805;49.554;7.632;2022-09-21T10:29:52;4.20;;;1.57;;
15412;SDS011;7805;49.554;7.632;2022-09-21T10:32:19;3.63;;;1.87;;
15412;SDS011;7805;49.554;7.632;2022-09-21T10:37:38;2.57;;;1.33;;
15412;SDS011;7805;49.554;7.632;2022-09-21T10:43:01;3.10;;;1.70;;
15412;SDS011;7805;49.554;7.632;2022-09-21T10:45:28;3.50;;;2.10;;
15412;SDS011;7805;49.554;7.632;2022-09-21T10:47:56;3.97;;;1.87;;
15412;SDS011;7805;49.554;7.632;2022-09-21T10:50:38;2.65;;;1.80;;
15412;SDS011;7805;49.554;7.632;2022-09-21T10:55:37;5.20;;;1.92;;
15412;SDS011;7805;49.554;7.632;2022-09-21T10:58:10;4.35;;;1.67;;
15412;SDS011;7805;49.554;7.632;2022-09-21T11:00:56;4.60;;;1.60;;
15412;SDS011;7805;49.554;7.632;2022-09-21T11:04:08;2.50;;;1.13;;
15412;SDS011;7805;49.554;7.632;2022-09-21T11:06:45;4.05;;;1.65;;
15412;SDS011;7805;49.554;7.632;2022-09-21T11:11:59;3.00;;;1.20;;
15412;SDS011;7805;49.554;7.632;2022-09-21T11:14:42;2.78;;;1.08;;
15412;SDS011;7805;49.554;7.632;2022-09-21T11:17:39;5.57;;;1.27;;
15412;SDS011;7805;49.554;7.632;2022-09-21T11:28:14;3.67;;;1.25;;
15412;SDS011;7805;49.554;7.632;2022-09-21T11:30:54;0.63;;;0.50;;
15412;SDS011;7805;49.554;7.632;2022-09-21T11:39:35;1.75;;;0.98;;
15412;SDS011;7805;49.554;7.632;2022-09-21T11:50:52;1.30;;;0.80;;
15412;SDS011;7805;49.554;7.632;2022-09-21T12:02:17;2.08;;;1.20;;
15412;SDS011;7805;49.554;7.632;2022-09-21T12:09:41;2.50;;;1.10;;
15412;SDS011;7805;49.554;7.632;2022-09-21T12:12:48;5.03;;;1.55;;
15412;SDS011;7805;49.554;7.632;2022-09-21T12:21:08;2.50;;;1.40;;
15412;SDS011;7805;49.554;7.632;2022-09-21T12:26:18;2.77;;;1.90;;
15412;SDS011;7805;49.554;7.632;2022-09-21T12:28:49;3.60;;;2.20;;
15412;SDS011;7805;49.554;7.632;2022-09-21T12:31:24;3.30;;;1.70;;
15412;SDS011;7805;49.554;7.632;2022-09-21T12:33:55;3.50;;;1.03;;
15412;SDS011;7805;49.554;7.632;2022-09-21T12:36:28;1.80;;;1.10;;
15412;SDS011;7805;49.554;7.632;2022-09-21T12:39:24;4.97;;;2.30;;
15412;SDS011;7805;49.554;7.632;2022-09-21T12:47:17;3.13;;;1.70;;
15412;SDS011;7805;49.554;7.632;2022-09-21T12:49:55;2.97;;;1.50;;
15412;SDS011;7805;49.554;7.632;2022-09-21T12:52:26;1.50;;;1.10;;
15412;SDS011;7805;49.554;7.632;2022-09-21T12:54:56;2.13;;;1.20;;
15412;SDS011;7805;49.554;7.632;2022-09-21T12:58:45;4.60;;;2.27;;
15412;SDS011;7805;49.554;7.632;2022-09-21T13:00:42;1.57;;;1.20;;
15412;SDS011;7805;49.554;7.632;2022-09-21T13:06:02;5.47;;;2.30;;
15412;SDS011;7805;49.554;7.632;2022-09-21T13:08:40;5.40;;;3.90;;
15412;SDS011;7805;49.554;7.632;2022-09-21T13:11:08;9.37;;;3.60;;
15412;SDS011;7805;49.554;7.632;2022-09-21T13:16:00;3.03;;;1.90;;
15412;SDS011;7805;49.554;7.632;2022-09-21T13:18:29;2.63;;;1.80;;
15412;SDS011;7805;49.554;7.632;2022-09-21T13:21:00;1.60;;;1.50;;
15412;SDS011;7805;49.554;7.632;2022-09-21T13:23:39;2.63;;;2.40;;
15412;SDS011;7805;49.554;7.632;2022-09-21T13:26:06;2.50;;;1.63;;
15412;SDS011;7805;49.554;7.632;2022-09-21T13:28:41;2.63;;;1.00;;
15412;SDS011;7805;49.554;7.632;2022-09-21T13:36:40;1.57;;;0.97;;
15412;SDS011;7805;49.554;7.632;2022-09-21T13:41:42;1.27;;;1.10;;
15412;SDS011;7805;49.554;7.632;2022-09-21T13:44:19;1.30;;;1.23;;
15412;SDS011;7805;49.554;7.632;2022-09-21T13:47:05;3.53;;;2.33;;
15412;SDS011;7805;49.554;7.632;2022-09-21T13:49:37;1.57;;;1.13;;
15412;SDS011;7805;49.554;7.632;2022-09-21T13:57:26;1.37;;;1.20;;
15412;SDS011;7805;49.554;7.632;2022-09-21T14:00:31;1.40;;;0.80;;
15412;SDS011;7805;49.554;7.632;2022-09-21T14:03:01;0.32;;;0.30;;
15412;SDS011;7805;49.554;7.632;2022-09-21T14:10:31;1.40;;;0.80;;
15412;SDS011;7805;49.554;7.632;2022-09-21T14:13:00;1.10;;;0.82;;
15412;SDS011;7805;49.554;7.632;2022-09-21T14:15:31;0.95;;;0.47;;
15412;SDS011;7805;49.554;7.632;2022-09-21T14:20:36;1.77;;;1.30;;
15412;SDS011;7805;49.554;7.632;2022-09-21T14:28:31;0.85;;;0.70;;
15412;SDS011;7805;49.554;7.632;2022-09-21T14:31:03;2.22;;;0.93;;
15412;SDS011;7805;49.554;7.632;2022-09-21T14:36:38;0.90;;;0.90;;
15412;SDS011;7805;49.554;7.632;2022-09-21T14:42:05;1.25;;;1.00;;
15412;SDS011;7805;49.554;7.632;2022-09-21T14:44:36;0.82;;;0.63;;
15412;SDS011;7805;49.554;7.632;2022-09-21T14:47:07;1.42;;;1.20;;
15412;SDS011;7805;49.554;7.632;2022-09-21T15:00:16;1.67;;;1.13;;
15412;SDS011;7805;49.554;7.632;2022-09-21T15:05:35;1.33;;;1.23;;
15412;SDS011;7805;49.554;7.632;2022-09-21T15:16:44;2.47;;;2.10;;
15412;SDS011;7805;49.554;7.632;2022-09-21T15:21:48;3.28;;;2.97;;
15412;SDS011;7805;49.554;7.632;2022-09-21T15:24:28;1.77;;;1.45;;
15412;SDS011;7805;49.554;7.632;2022-09-21T15:27:13;2.15;;;1.95;;
15412;SDS011;7805;49.554;7.632;2022-09-21T15:29:47;2.20;;;1.92;;
15412;SDS011;7805;49.554;7.632;2022-09-21T15:32:23;2.00;;;1.80;;
15412;SDS011;7805;49.554;7.632;2022-09-21T15:35:03;1.92;;;1.30;;
15412;SDS011;7805;49.554;7.632;2022-09-21T15:37:44;2.95;;;1.88;;
15412;SDS011;7805;49.554;7.632;2022-09-21T15:40:21;2.10;;;1.60;;
15412;SDS011;7805;49.554;7.632;2022-09-21T15:42:57;3.67;;;1.73;;
15412;SDS011;7805;49.554;7.632;2022-09-21T15:45:36;1.80;;;1.65;;
15412;SDS011;7805;49.554;7.632;2022-09-21T15:48:20;2.65;;;2.45;;
15412;SDS011;7805;49.554;7.632;2022-09-21T15:50:49;4.93;;;3.50;;
15412;SDS011;7805;49.554;7.632;2022-09-21T15:53:39;2.50;;;2.30;;
15412;SDS011;7805;49.554;7.632;2022-09-21T15:56:19;1.60;;;1.50;;
15412;SDS011;7805;49.554;7.632;2022-09-21T15:58:50;2.10;;;1.23;;
15412;SDS011;7805;49.554;7.632;2022-09-21T16:01:23;3.35;;;1.00;;
15412;SDS011;7805;49.554;7.632;2022-09-21T16:04:00;1.02;;;0.85;;
15412;SDS011;7805;49.554;7.632;2022-09-21T16:06:35;0.90;;;0.90;;
15412;SDS011;7805;49.554;7.632;2022-09-21T16:11:47;3.03;;;2.47;;
15412;SDS011;7805;49.554;7.632;2022-09-21T16:14:14;2.80;;;2.60;;
15412;SDS011;7805;49.554;7.632;2022-09-21T16:22:08;1.55;;;1.45;;
15412;SDS011;7805;49.554;7.632;2022-09-21T16:24:39;2.45;;;1.75;;
15412;SDS011;7805;49.554;7.632;2022-09-21T16:27:17;3.10;;;2.30;;
15412;SDS011;7805;49.554;7.632;2022-09-21T16:29:45;3.90;;;2.75;;
15412;SDS011;7805;49.554;7.632;2022-09-21T16:34:45;2.23;;;1.53;;
15412;SDS011;7805;49.554;7.632;2022-09-21T16:39:53;2.60;;;2.03;;
15412;SDS011;7805;49.554;7.632;2022-09-21T16:42:21;3.97;;;2.30;;
15412;SDS011;7805;49.554;7.632;2022-09-21T16:44:48;2.40;;;2.20;;
15412;SDS011;7805;49.554;7.632;2022-09-21T16:47:18;2.90;;;2.30;;
15412;SDS011;7805;49.554;7.632;2022-09-21T16:49:52;1.20;;;1.10;;
15412;SDS011;7805;49.554;7.632;2022-09-21T16:52:24;1.43;;;1.07;;
15412;SDS011;7805;49.554;7.632;2022-09-21T16:54:52;1.50;;;1.30;;
15412;SDS011;7805;49.554;7.632;2022-09-21T16:57:19;1.37;;;1.10;;
15412;SDS011;7805;49.554;7.632;2022-09-21T16:59:45;4.63;;;3.60;;
15412;SDS011;7805;49.554;7.632;2022-09-21T17:02:11;4.70;;;2.43;;
15412;SDS011;7805;49.554;7.632;2022-09-21T17:04:38;3.80;;;1.60;;
15412;SDS011;7805;49.554;7.632;2022-09-21T17:07:04;2.03;;;1.40;;
15412;SDS011;7805;49.554;7.632;2022-09-21T17:09:34;5.23;;;2.40;;
15412;SDS011;7805;49.554;7.632;2022-09-21T17:12:02;2.33;;;2.10;;
15412;SDS011;7805;49.554;7.632;2022-09-21T17:14:31;3.37;;;1.70;;
15412;SDS011;7805;49.554;7.632;2022-09-21T17:17:01;2.60;;;1.53;;
15412;SDS011;7805;49.554;7.632;2022-09-21T17:19:28;2.40;;;1.50;;
15412;SDS011;7805;49.554;7.632;2022-09-21T17:21:55;3.27;;;1.70;;
15412;SDS011;7805;49.554;7.632;2022-09-21T17:24:20;2.07;;;1.60;;
15412;SDS011;7805;49.554;7.632;2022-09-21T17:26:47;1.60;;;1.50;;
15412;SDS011;7805;49.554;7.632;2022-09-21T17:29:23;4.00;;;1.43;;
15412;SDS011;7805;49.554;7.632;2022-09-21T17:31:51;1.53;;;1.10;;
15412;SDS011;7805;49.554;7.632;2022-09-21T17:34:22;6.60;;;1.77;;
15412;SDS011;7805;49.554;7.632;2022-09-21T17:36:52;2.73;;;1.40;;
15412;SDS011;7805;49.554;7.632;2022-09-21T17:39:19;2.57;;;1.70;;
15412;SDS011;7805;49.554;7.632;2022-09-21T17:49:43;1.33;;;1.20;;
15412;SDS011;7805;49.554;7.632;2022-09-21T17:52:13;1.60;;;1.33;;
15412;SDS011;7805;49.554;7.632;2022-09-21T17:54:59;0.90;;;0.80;;
15412;SDS011;7805;49.554;7.632;2022-09-21T18:02:43;3.50;;;3.10;;
15412;SDS011;7805;49.554;7.632;2022-09-21T18:05:18;3.40;;;3.10;;
15412;SDS011;7805;49.554;7.632;2022-09-21T18:07:52;2.90;;;2.60;;
15412;SDS011;7805;49.554;7.632;2022-09-21T18:10:18;8.53;;;3.63;;
15412;SDS011;7805;49.554;7.632;2022-09-21T18:12:58;3.13;;;2.83;;
15412;SDS011;7805;49.554;7.632;2022-09-21T18:18:27;3.70;;;3.40;;
15412;SDS011;7805;49.554;7.632;2022-09-21T18:21:19;2.03;;;1.87;;
15412;SDS011;7805;49.554;7.632;2022-09-21T18:26:36;2.70;;;2.23;;
15412;SDS011;7805;49.554;7.632;2022-09-21T18:29:03;3.10;;;1.93;;
15412;SDS011;7805;49.554;7.632;2022-09-21T18:34:48;2.50;;;1.80;;
15412;SDS011;7805;49.554;7.632;2022-09-21T18:40:43;3.20;;;2.87;;
15412;SDS011;7805;49.554;7.632;2022-09-21T18:46:16;7.13;;;6.43;;
15412;SDS011;7805;49.554;7.632;2022-09-21T18:51:41;7.03;;;4.90;;
15412;SDS011;7805;49.554;7.632;2022-09-21T18:54:22;5.07;;;4.57;;
15412;SDS011;7805;49.554;7.632;2022-09-21T18:56:51;6.43;;;3.90;;
15412;SDS011;7805;49.554;7.632;2022-09-21T18:59:17;5.87;;;4.90;;
15412;SDS011;7805;49.554;7.632;2022-09-21T19:01:43;5.97;;;5.43;;
15412;SDS011;7805;49.554;7.632;2022-09-21T19:04:11;7.40;;;5.20;;
15412;SDS011;7805;49.554;7.632;2022-09-21T19:12:05;5.47;;;4.17;;
15412;SDS011;7805;49.554;7.632;2022-09-21T19:25:24;4.90;;;4.40;;
15412;SDS011;7805;49.554;7.632;2022-09-21T19:31:07;4.83;;;4.30;;
15412;SDS011;7805;49.554;7.632;2022-09-21T19:33:35;3.80;;;3.27;;
15412;SDS011;7805;49.554;7.632;2022-09-21T19:36:01;2.83;;;2.63;;
15412;SDS011;7805;49.554;7.632;2022-09-21T19:38:28;4.60;;;2.73;;
15412;SDS011;7805;49.554;7.632;2022-09-21T19:41:12;2.60;;;1.90;;
15412;SDS011;7805;49.554;7.632;2022-09-21T19:49:50;7.43;;;6.73;;
15412;SDS011;7805;49.554;7.632;2022-09-21T19:52:28;3.60;;;3.03;;
15412;SDS011;7805;49.554;7.632;2022-09-21T19:54:56;3.57;;;2.83;;
15412;SDS011;7805;49.554;7.632;2022-09-21T19:57:41;3.63;;;2.37;;
15412;SDS011;7805;49.554;7.632;2022-09-21T20:00:25;3.53;;;3.23;;
15412;SDS011;7805;49.554;7.632;2022-09-21T20:03:04;7.77;;;4.50;;